• Join FlightAware (Why Join?)
  • Login
  • US Flag 
04:56AM EDT


 

Airport Tracker/Info


-or-


 

Live Flight TrackerFlight Track Log ✈ DAL268 ✈ 03-Oct-2013 ✈ KSFO - KJFK

Flight Track Log - Related Links

Times and Time Zones

All times are in EDT time to prevent confusion due to time zone crossing. See the DAL268 flight status page for this flight to view local times or setup timezone preferences in your user account.

Time Position Orientation Groundspeed Altitude Reporting Facility
EDT Latitude Longitude Course Direction KTS MPH feet Rate Location/Type
02:47PM 37.6500 -122.3333 38° Northeast 174 200 2,100  Level Northern Cal TRACON
02:48PM 37.6833 -122.2833 50° Northeast 230 265 4,300 2,760 Climbing Northern Cal TRACON
02:49PM 37.8654 -122.1180 38° Northeast  Level FlightAware Approximate
02:49PM 37.7333 -122.2000 53° Northeast 263 303 7,500  Level Northern Cal TRACON
02:50PM 37.9685 -122.0148 38° Northeast  Level FlightAware Approximate
02:51PM 38.0652 -121.9118 35° Northeast  Level FlightAware Approximate
02:51PM 37.8106 -122.1008 45° Northeast 275 316 10,900  Level Oakland Center
02:52PM 38.1708 -121.8126 38° Northeast  Level FlightAware Approximate
02:52PM 37.8969 -122.0267 34° Northeast 306 352 14,400  Level Oakland Center
02:53PM 38.2741 -121.7092 38° Northeast  Level FlightAware Approximate
02:53PM 37.9722 -121.9606 35° Northeast 327 376 15,800  Level Oakland Center
02:54PM 38.0619 -121.8847 34° Northeast 382 440 17,200 1,620 Climbing Oakland Center
02:55PM 38.1536 -121.8042 35° Northeast 400 460 19,200 1,980 Climbing Oakland Center
02:56PM 38.2475 -121.7225 34° Northeast 408 470 21,300 1,860 Climbing Oakland Center
02:57PM 38.3425 -121.6394 34° Northeast 415 478 23,100 1,740 Climbing Oakland Center
02:58PM 38.4425 -121.5469 36° Northeast 425 489 24,900 1,680 Climbing Oakland Center
02:59PM 38.5319 -121.4014 52° Northeast 452 520 26,600 1,440 Climbing Oakland Center
03:00PM 38.6067 -121.2686 54° Northeast 459 528 27,900 1,320 Climbing Oakland Center
03:01PM 38.6806 -121.1436 53° Northeast 468 539 29,400 2,040 Climbing Oakland Center
03:02PM 38.7556 -121.0133 54° Northeast 457 526 32,100 1,740 Climbing Oakland Center
03:03PM 38.8269 -120.8897 53° Northeast 435 501 33,000 420 Climbing Oakland Center
03:04PM 38.9128 -120.7403 54° Northeast 436 502 33,000  Level Oakland Center
03:05PM 38.9853 -120.6147 53° Northeast 436 502 33,000  Level Oakland Center
03:06PM 39.0578 -120.4864 54° Northeast 441 507 33,000  Level Oakland Center
03:07PM 39.1314 -120.3592 53° Northeast 444 511 33,000  Level Oakland Center
03:08PM 39.2042 -120.2314 54° Northeast 443 510 33,000  Level Oakland Center
03:09PM 39.2722 -120.1111 54° Northeast 443 510 33,000  Level Oakland Center
03:10PM 39.3614 -119.9594 53° Northeast 441 507 33,000  Level Oakland Center
03:11PM 39.4319 -119.8325 54° Northeast 434 499 33,000  Level Oakland Center
03:12PM 39.5042 -119.7058 54° Northeast 436 502 33,100 660 Climbing Oakland Center
03:13PM 39.5667 -119.5700 59° Northeast 441 507 34,400 1,200 Climbing Oakland Center
03:14PM 39.6219 -119.4269 63° Northeast 443 510 35,600 1,260 Climbing Oakland Center
03:15PM 39.6786 -119.2850 63° Northeast 441 507 37,000 660 Climbing Oakland Center
03:16PM 39.7303 -119.1522 63° Northeast 416 479 37,000  Level Oakland Center
03:17PM 39.7828 -119.0178 63° Northeast 413 475 37,000  Level Oakland Center
03:18PM 39.8372 -118.8775 63° Northeast 427 491 37,000  Level Oakland Center
03:19PM 39.8911 -118.7358 64° Northeast 433 498 37,000  Level Oakland Center
03:20PM 39.9575 -118.5644 63° Northeast 437 503 37,000  Level Oakland Center
03:21PM 40.0117 -118.4208 64° Northeast 440 506 37,000  Level Oakland Center
03:23PM 40.0667 -118.2750 64° Northeast 444 511 37,000  Level Oakland Center
03:24PM 40.1231 -118.1256 64° Northeast 454 522 37,000  Level Oakland Center
03:25PM 40.1803 -117.9742 64° Northeast 462 532 37,000  Level Oakland Center
03:26PM 40.2367 -117.8233 64° Northeast 462 532 37,000  Level Oakland Center
03:27PM 40.2925 -117.6731 64° Northeast 463 533 37,000  Level Oakland Center
03:28PM 40.3569 -117.5017 64° Northeast 468 539 37,000  Level Oakland Center
03:29PM 40.4119 -117.3511 64° Northeast 473 544 37,000  Level Oakland Center
03:30PM 40.4689 -117.1986 64° Northeast 479 551 37,000  Level Oakland Center
03:31PM 40.5347 -117.0186 64° Northeast 482 555 37,000  Level Oakland Center
03:32PM 40.5911 -116.8606 65° Northeast 488 562 37,000  Level Oakland Center
03:33PM 40.6528 -116.7069 62° Northeast 491 565 37,000  Level Oakland Center
03:34PM 40.7408 -116.4817 63° Northeast 479 551 37,000  Level Salt Lake Center
03:35PM 40.7989 -116.3317 63° Northeast 478 550 37,000  Level Salt Lake Center
03:36PM 40.8672 -116.1533 63° Northeast 485 558 37,000  Level Salt Lake Center
03:37PM 40.9272 -116.0014 62° Northeast 486 559 37,000  Level Salt Lake Center
03:38PM 40.9931 -115.8236 64° Northeast 481 554 37,000  Level Salt Lake Center
03:39PM 41.0511 -115.6703 63° Northeast 484 557 37,000  Level Salt Lake Center
03:40PM 41.1186 -115.4906 63° Northeast 487 560 37,000  Level Salt Lake Center
03:41PM 41.1761 -115.3367 64° Northeast 486 559 37,000  Level Salt Lake Center
03:42PM 41.2344 -115.1814 63° Northeast 489 563 37,000  Level Salt Lake Center
03:43PM 41.3011 -114.9969 64° Northeast 493 567 37,000  Level Salt Lake Center
03:44PM 41.3675 -114.8183 64° Northeast 490 564 37,000  Level Salt Lake Center
03:45PM 41.4247 -114.6600 64° Northeast 479 551 37,000  Level Salt Lake Center
03:47PM 41.4847 -114.4967 64° Northeast 489 563 37,000  Level Salt Lake Center
03:48PM 41.5442 -114.3311 64° Northeast 494 568 37,000  Level Salt Lake Center
03:49PM 41.6039 -114.1664 64° Northeast 494 568 37,000  Level Salt Lake Center
03:50PM 41.6611 -114.0022 65° Northeast 490 564 37,000  Level Salt Lake Center
03:51PM 41.7194 -113.8386 64° Northeast 487 560 37,000  Level Salt Lake Center
03:52PM 41.7894 -113.6419 64° Northeast 486 559 37,000  Level Salt Lake Center
03:53PM 41.8478 -113.4786 64° Northeast 487 560 37,000  Level Salt Lake Center
03:54PM 41.9056 -113.3097 65° Northeast 496 571 37,000  Level Salt Lake Center
03:55PM 41.9644 -113.1411 65° Northeast 499 574 37,000  Level Salt Lake Center
03:56PM 42.0222 -112.9719 65° Northeast 499 574 37,000  Level Salt Lake Center
03:57PM 42.0803 -112.8017 65° Northeast 500 575 37,000  Level Salt Lake Center
03:58PM 42.1375 -112.6350 65° Northeast 493 567 37,000  Level Salt Lake Center
03:59PM 42.2053 -112.4328 66° East 493 567 37,000  Level Salt Lake Center
04:00PM 42.2606 -112.2639 66° East 492 566 37,000  Level Salt Lake Center
04:01PM 42.3161 -112.0931 66° East 495 570 37,000  Level Salt Lake Center
04:02PM 42.3711 -111.9228 66° East 494 568 37,000  Level Salt Lake Center
04:03PM 42.4256 -111.7533 66° East 493 567 37,000  Level Salt Lake Center
04:04PM 42.4806 -111.5817 66° East 495 570 37,000  Level Salt Lake Center
04:05PM 42.5347 -111.4117 67° East 492 566 37,000  Level Salt Lake Center
04:06PM 42.6000 -111.2033 67° East 499 574 37,000  Level Salt Lake Center
04:07PM 42.6550 -111.0297 67° East 501 577 37,000  Level Salt Lake Center
04:08PM 42.7139 -110.8397 67° East 507 583 37,000  Level Salt Lake Center
04:09PM 42.7675 -110.6689 67° East 511 588 37,000  Level Salt Lake Center
04:10PM 42.8183 -110.5008 68° East 505 581 37,000  Level Salt Lake Center
04:11PM 42.8794 -110.3031 67° East 507 583 37,000  Level Salt Lake Center
04:12PM 42.9306 -110.1322 68° East 509 586 37,000  Level Salt Lake Center
04:13PM 42.9900 -109.9347 68° East 506 582 37,000  Level Salt Lake Center
04:14PM 43.0394 -109.7697 68° East 507 583 37,000  Level Salt Lake Center
04:15PM 43.0925 -109.5903 68° East 509 586 37,000  Level Salt Lake Center
04:16PM 43.1558 -109.3731 68° East 513 590 37,000  Level Salt Lake Center
04:17PM 43.2083 -109.1939 68° East 510 587 37,000  Level Salt Lake Center
04:18PM 43.2617 -109.0094 68° East 520 598 37,000  Level Salt Lake Center
04:20PM 43.3144 -108.8239 69° East 525 604 37,000  Level Salt Lake Center
04:21PM 43.3681 -108.6406 68° East 521 600 37,000  Level Salt Lake Center
04:22PM 43.4208 -108.4536 69° East 525 604 37,000  Level Salt Lake Center
04:23PM 43.4719 -108.2675 69° East 524 603 37,000  Level Salt Lake Center
04:24PM 43.5392 -108.0444 67° East 527 606 37,000  Level Salt Lake Center
04:25PM 43.5944 -107.8569 68° East 529 609 37,000  Level Salt Lake Center
04:26PM 43.6500 -107.6692 68° East 532 612 37,000  Level Salt Lake Center
04:27PM 43.7042 -107.4789 68° East 536 617 37,000  Level Salt Lake Center
04:28PM 43.7561 -107.2911 69° East 530 610 37,000  Level Salt Lake Center
04:29PM 43.8114 -107.1017 68° East 533 613 37,000  Level Salt Lake Center
04:30PM 43.8700 -106.8950 68° East 527 606 37,000  Level Salt Lake Center
04:30PM 43.8981 -106.7997 68° East 530 610 37,000  Level Denver Center
04:31PM 43.9583 -106.5883 68° East 529 609 37,000  Level Denver Center
04:32PM 43.9833 -106.4981 69° East 533 613 37,000  Level Salt Lake Center
04:33PM 44.0017 -106.3028 82° East 514 592 37,000  Level Salt Lake Center
04:33PM 44.0019 -106.1864 90° East 506 582 37,000  Level Denver Center
04:34PM 44.0039 -105.9967 89° East 510 587 37,000  Level Denver Center
04:36PM 44.0042 -105.7767 90° East 510 587 37,000  Level Denver Center
04:37PM 44.0042 -105.5908 90° East 505 581 37,000  Level Denver Center
04:38PM 44.0039 -105.3717 90° East 507 583 37,000  Level Denver Center
04:39PM 44.0042 -105.1858 90° East 504 580 37,000  Level Denver Center
04:40PM 44.0031 -104.9683 90° East 505 581 37,000  Level Denver Center
04:41PM 44.0025 -104.7783 90° East 509 586 37,000  Level Denver Center
04:42PM 44.0011 -104.5928 91° East 505 581 37,000  Level Denver Center
04:43PM 43.9989 -104.3750 91° East 505 581 37,000  Level Denver Center
04:44PM 43.9964 -104.1903 91° East 500 575 37,000  Level Denver Center
04:45PM 43.9936 -103.9728 91° East 503 579 37,000  Level Denver Center
04:46PM 43.9914 -103.7858 91° East 506 582 37,000  Level Denver Center
04:47PM 43.9872 -103.5669 91° East 508 585 37,000  Level Denver Center
04:48PM 43.9844 -103.3806 91° East 505 581 37,000  Level Denver Center
04:49PM 43.9811 -103.1669 91° East 499 574 37,000  Level Denver Center
04:50PM 43.9900 -102.9767 86° East 519 597 37,000  Level Denver Center
04:51PM 44.0483 -102.7969 66° East 531 611 37,000  Level Denver Center
04:52PM 44.1233 -102.5767 65° Northeast 529 609 37,000  Level Denver Center
04:53PM 44.1867 -102.3894 65° Northeast 534 615 37,000  Level Denver Center
04:54PM 44.2497 -102.1997 65° Northeast 539 620 37,000  Level Denver Center
04:55PM 44.3092 -102.0086 66° East 538 619 37,000  Level Denver Center
04:56PM 44.3708 -101.8192 65° Northeast 537 618 37,000  Level Denver Center
04:57PM 44.4303 -101.6325 66° East 530 610 37,000  Level Denver Center
04:58PM 44.5036 -101.4092 65° Northeast 528 608 37,000  Level Denver Center
04:59PM 44.5611 -101.2197 67° East 529 609 37,000  Level Denver Center
05:00PM 44.6206 -101.0333 66° East 525 604 37,000  Level Denver Center
05:01PM 44.6781 -100.8475 66° East 521 600 37,000  Level Denver Center
05:03PM 44.7614 -100.5856 66° East 526 605 37,000  Level Minneapolis Center
05:04PM 44.8189 -100.3994 66° East 523 602 37,000  Level Minneapolis Center
05:05PM 44.8750 -100.2153 67° East 517 595 37,000  Level Minneapolis Center
05:06PM 44.9303 -100.0314 67° East 516 594 37,000  Level Minneapolis Center
05:07PM 44.9947 -99.8147 67° East 519 597 37,000  Level Minneapolis Center
05:08PM 45.0500 -99.6319 67° East 517 595 37,000  Level Minneapolis Center
05:09PM 45.1053 -99.4475 67° East 514 592 37,000  Level Minneapolis Center
05:10PM 45.1600 -99.2628 67° East 512 589 37,000  Level Minneapolis Center
05:11PM 45.2256 -99.0408 67° East 510 587 37,000  Level Minneapolis Center
05:12PM 45.2783 -98.8561 68° East 509 586 37,000  Level Minneapolis Center
05:13PM 45.3306 -98.6722 68° East 505 581 37,000  Level Minneapolis Center
05:14PM 45.3839 -98.4867 68° East 507 583 37,000  Level Minneapolis Center
05:15PM 45.4322 -98.3006 70° East 504 580 37,000 540 Level Minneapolis Center
05:16PM 45.4597 -98.1106 78° East 495 570 38,200 960 Climbing Minneapolis Center
05:17PM 45.4922 -97.9011 77° East 495 570 39,000 360 Climbing Minneapolis Center
05:18PM 45.5211 -97.7094 78° East 496 571 39,000  Level Minneapolis Center
05:19PM 45.5519 -97.5161 77° East 499 574 39,000  Level Minneapolis Center
05:20PM 45.5869 -97.2803 78° East 505 581 39,000  Level Minneapolis Center
05:21PM 45.6164 -97.0828 78° East 508 585 39,000  Level Minneapolis Center
05:22PM 45.6456 -96.8847 78° East 510 587 39,000  Level Minneapolis Center
05:23PM 45.6747 -96.6842 78° East 513 590 39,000  Level Minneapolis Center
05:24PM 45.7028 -96.4867 78° East 510 587 39,000  Level Minneapolis Center
05:25PM 45.7317 -96.2869 78° East 511 588 39,000  Level Minneapolis Center
05:27PM 45.7658 -96.0450 78° East 515 593 39,000  Level Minneapolis Center
05:28PM 45.7928 -95.8419 79° East 518 596 39,000  Level Minneapolis Center
05:29PM 45.8211 -95.6361 79° East 524 603 39,000  Level Minneapolis Center
05:30PM 45.8483 -95.4322 79° East 523 602 39,000  Level Minneapolis Center
05:31PM 45.8753 -95.2283 79° East 522 601 39,000  Level Minneapolis Center
05:32PM 45.9061 -94.9911 79° East 525 604 39,000  Level Minneapolis Center
05:33PM 45.9331 -94.7833 79° East 528 608 39,000  Level Minneapolis Center
05:34PM 45.9592 -94.5767 80° East 528 608 39,000  Level Minneapolis Center
05:35PM 45.9844 -94.3703 80° East 526 605 39,000  Level Minneapolis Center
05:36PM 46.0092 -94.1625 80° East 528 608 39,000  Level Minneapolis Center
05:37PM 46.0339 -93.9547 80° East 526 605 39,000  Level Minneapolis Center
05:38PM 46.0639 -93.7042 80° East 529 609 39,000  Level Minneapolis Center
05:39PM 46.0878 -93.4944 81° East 529 609 39,000  Level Minneapolis Center
05:40PM 46.1114 -93.2844 81° East 530 610 39,000  Level Minneapolis Center
05:41PM 46.1347 -93.0772 81° East 528 608 39,000  Level Minneapolis Center
05:42PM 46.1569 -92.8683 81° East 527 606 39,000  Level Minneapolis Center
05:43PM 46.1803 -92.6642 81° East 521 600 39,000  Level Minneapolis Center
05:44PM 46.2025 -92.4547 81° East 525 604 39,000  Level Minneapolis Center
05:45PM 46.2131 -92.2092 86° East 530 610 39,000  Level Minneapolis Center
05:46PM 46.1994 -92.0028 95° East 506 582 39,000  Level Minneapolis Center
05:47PM 46.1883 -91.7989 94° East 507 583 39,000  Level Minneapolis Center
05:48PM 46.1750 -91.5981 95° East 512 589 39,000  Level Minneapolis Center
05:49PM 46.1617 -91.3950 95° East 511 588 39,000  Level Minneapolis Center
05:50PM 46.1439 -91.1531 96° East 508 585 39,000  Level Minneapolis Center
05:51PM 46.1314 -90.9506 95° East 509 586 39,000  Level Minneapolis Center
05:52PM 46.1167 -90.7492 96° East 505 581 39,000  Level Minneapolis Center
05:53PM 46.1014 -90.5469 96° East 508 585 39,000  Level Minneapolis Center
05:54PM 46.0847 -90.3425 97° East 514 592 39,000  Level Minneapolis Center
05:55PM 46.0689 -90.1383 96° East 515 593 39,000  Level Minneapolis Center
05:57PM 46.0508 -89.8942 96° East 512 589 39,000  Level Minneapolis Center
05:58PM 46.0344 -89.6931 97° East 516 594 39,000 -60 Level Minneapolis Center
05:59PM 46.0164 -89.4675 96° East 521 600 38,900 -60 Descending Minneapolis Center
06:00PM 45.9994 -89.2617 97° East 520 598 38,900  Level Minneapolis Center
06:01PM 45.9806 -89.0553 97° East 522 601 39,000  Climbing Minneapolis Center
06:02PM 45.9617 -88.8367 97° East 525 604 39,000  Level Minneapolis Center
06:03PM 45.9436 -88.6333 97° East 518 596 39,000  Level Minneapolis Center
06:04PM 45.9253 -88.4283 97° East 519 597 39,000  Level Minneapolis Center
06:05PM 45.9058 -88.2258 98° East 513 590 39,000  Level Minneapolis Center
06:06PM 45.8839 -87.9914 98° East 514 592 39,000 -60 Level Minneapolis Center
06:07PM 45.8639 -87.7911 98° East 510 587 38,900 -60 Descending Minneapolis Center
06:08PM 45.8436 -87.5894 98° East 510 587 38,900  Level Minneapolis Center
06:09PM 45.8239 -87.3878 98° East 510 587 39,000  Climbing Minneapolis Center
06:10PM 45.8025 -87.1900 99° East 505 581 38,900  Descending Minneapolis Center
06:11PM 45.7775 -86.9467 98° East 512 589 39,000  Climbing Minneapolis Center
06:12PM 45.7556 -86.7467 99° East 510 587 38,900 -60 Descending Minneapolis Center
06:13PM 45.7336 -86.5436 99° East 512 589 38,900  Level Minneapolis Center
06:14PM 45.7111 -86.3436 99° East 511 588 39,000  Climbing Minneapolis Center
06:15PM 45.6889 -86.1428 99° East 510 587 38,900 -60 Descending Minneapolis Center
06:16PM 45.6653 -85.9394 99° East 515 593 38,900  Level Minneapolis Center
06:17PM 45.6422 -85.7361 99° East 516 594 39,000  Climbing Minneapolis Center
06:18PM 45.6128 -85.4936 100° East 515 593 39,000  Level Minneapolis Center
06:19PM 45.5889 -85.2931 100° East 513 590 39,000  Level Minneapolis Center
06:20PM 45.5653 -85.0933 100° East 511 588 39,000 -60 Level Minneapolis Center
06:21PM 45.5394 -84.8936 100° East 511 588 38,900  Descending Minneapolis Center
06:22PM 45.5147 -84.6928 100° East 514 592 39,000  Climbing Minneapolis Center
06:23PM 45.4892 -84.4956 100° East 509 586 38,900 -60 Descending Minneapolis Center
06:24PM 45.4594 -84.2581 100° East 508 585 38,900  Level Minneapolis Center
06:25PM 45.4331 -84.0606 101° East 508 585 39,000  Climbing Minneapolis Center
06:27PM 45.4072 -83.8628 100° East 509 586 38,900 -60 Descending Minneapolis Center
06:28PM 45.3792 -83.6636 101° East 512 589 38,900  Level Minneapolis Center
06:29PM 45.3519 -83.4633 101° East 515 593 38,900  Level Minneapolis Center
06:30PM 45.3247 -83.2664 101° East 512 589 38,900  Level Minneapolis Center
06:31PM 45.2906 -83.0286 101° East 512 589 38,900  Level Minneapolis Center
06:32PM 45.2631 -82.8325 101° East 510 587 39,000  Climbing Minneapolis Center
06:33PM 45.2333 -82.6369 102° East 508 585 39,000  Level Minneapolis Center
06:34PM 45.1833 -82.3833 106° East 510 587 39,000  Level Toronto Center
06:35PM 45.1333 -82.1833 109° East 510 587 39,000  Level Toronto Center
06:36PM 45.0833 -82.0167 113° Southeast 510 587 39,000  Level Toronto Center
06:37PM 45.0500 -81.8333 104° East 510 587 39,000  Level Toronto Center
06:38PM 45.0167 -81.6333 103° East 510 587 39,000  Level Toronto Center
06:39PM 44.9667 -81.4500 111° Southeast 510 587 39,000  Level Toronto Center
06:40PM 44.9167 -81.2500 109° East 510 587 39,000  Level Toronto Center
06:41PM 44.8667 -81.0667 111° Southeast 510 587 39,000  Level Toronto Center
06:42PM 44.8333 -80.8833 104° East 510 587 39,000  Level Toronto Center
06:43PM 44.8000 -80.6833 103° East 490 564 39,000  Level Toronto Center
06:44PM 44.7500 -80.5000 111° Southeast 480 552 39,000  Level Toronto Center
06:45PM 44.7167 -80.3333 106° East 490 564 39,000  Level Toronto Center
06:46PM 44.6667 -80.1500 111° Southeast 490 564 39,000  Level Toronto Center
06:47PM 44.6167 -79.9667 111° Southeast 490 564 39,000  Level Toronto Center
06:48PM 44.5833 -79.8000 106° East 490 564 39,000  Level Toronto Center
06:49PM 44.5333 -79.6167 111° Southeast 490 564 39,000  Level Toronto Center
06:50PM 44.4833 -79.4167 109° East 490 564 39,000  Level Toronto Center
06:51PM 44.4333 -79.2333 111° Southeast 490 564 39,000  Level Toronto Center
06:52PM 44.3833 -79.0667 113° Southeast 490 564 39,000  Level Toronto Center
06:53PM 44.3500 -78.8833 104° East 490 564 39,000  Level Toronto Center
06:54PM 44.3000 -78.7000 111° Southeast 490 564 39,000  Level Toronto Center
06:55PM 44.2500 -78.5333 113° Southeast 490 564 39,000  Level Toronto Center
06:56PM 44.1833 -78.3500 117° Southeast 490 564 39,000  Level Toronto Center
06:57PM 44.1333 -78.2000 115° Southeast 490 564 39,000  Level Toronto Center
06:58PM 44.1000 -78.0000 103° East 490 564 39,000  Level Toronto Center
06:59PM 44.0500 -77.8167 111° Southeast 490 564 39,000  Level Toronto Center
07:00PM 44.0000 -77.6667 115° Southeast 480 552 39,000  Level Toronto Center
07:01PM 43.9500 -77.4833 111° Southeast 490 564 39,000  Level Toronto Center
07:02PM 43.8833 -77.3000 117° Southeast 490 564 39,000  Level Toronto Center
07:03PM 43.8500 -77.1333 105° East 490 564 39,000  Level Toronto Center
07:04PM 43.8000 -76.9500 111° Southeast 490 564 39,000  Level Toronto Center
07:05PM 43.7500 -76.7667 111° Southeast 500 575 39,000  Level Toronto Center
07:06PM 43.6500 -76.6167 133° Southeast 490 564 39,000 -60 Level Toronto Center
07:07PM 43.5703 -76.5069 135° Southeast 483 556 38,900 -60 Descending Boston Center
07:08PM 43.4706 -76.3744 136° Southeast 488 562 38,900  Level Boston Center
07:09PM 43.3728 -76.2450 136° Southeast 493 567 38,900  Level Boston Center
07:10PM 43.2728 -76.1161 137° Southeast 493 567 39,000  Climbing Boston Center
07:11PM 43.1767 -75.9908 136° Southeast 488 562 38,900  Descending Boston Center
07:12PM 43.0742 -75.8625 138° Southeast 488 562 39,000  Climbing Boston Center
07:13PM 42.9758 -75.7350 136° Southeast 488 562 39,000  Level Boston Center
07:14PM 42.8733 -75.6050 137° Southeast 488 562 39,000  Level Boston Center
07:15PM 42.7747 -75.4781 137° Southeast 488 562 39,000  Level Boston Center
07:16PM 42.6736 -75.3517 137° Southeast 488 562 39,000  Level Boston Center
07:17PM 42.5747 -75.2231 136° Southeast 493 567 39,000  Level Boston Center
07:18PM 42.4778 -75.0975 136° Southeast 493 567 39,000 -240 Level Boston Center
07:19PM 42.3742 -74.9722 138° Southeast 493 567 38,600 -660 Descending Boston Center
07:20PM 42.2769 -74.8506 137° Southeast 487 560 37,700 -2,220 Descending Boston Center
07:21PM 42.1753 -74.7261 138° Southeast 487 560 34,200 -3,240 Descending Boston Center
07:22PM 42.0733 -74.6022 138° Southeast 487 560 31,200 -3,120 Descending Boston Center
07:23PM 41.9658 -74.4478 133° Southeast 498 573 28,100 -1,260 Descending Boston Center
07:25PM 41.7269 -74.2397 147° Southeast 478 550 27,400 -1,020 Descending New York Center
07:26PM 41.6039 -74.1750 159° South 478 550 25,000 -2,400 Descending New York Center
07:27PM 41.5036 -74.1200 158° South 465 535 22,700 -2,400 Descending New York Center
07:28PM 41.3822 -74.0669 162° South 459 528 20,200 -1,440 Descending New York Center
07:29PM 41.2672 -74.0781 184° South 418 481 19,900 -600 Descending New York Center
07:30PM 41.1458 -74.1022 189° South 418 481 19,000 -480 Descending New York Center
07:31PM 41.0600 -74.1144 186° South 378 435 19,000 -120 Level New York Center
07:32PM 40.9647 -74.0989 173° South 325 374 18,800 -900 Descending New York Center
07:33PM 40.8844 -74.0619 161° South 331 381 17,300 -1,500 Descending New York Center
07:34PM 40.7897 -74.0217 162° South 331 381 15,900 -1,320 Descending New York Center
07:35PM 40.7136 -73.9908 163° South 331 381 14,700 -1,440 Descending New York Center
07:36PM 40.6231 -73.9508 161° South 315 362 13,100 -1,200 Descending New York Center
07:37PM 40.5575 -73.9042 152° Southeast 310 357 12,300 -1,500 Descending New York Center
07:38PM 40.4914 -73.8083 132° Southeast 310 357 10,100 -1,920 Descending New York Center
07:39PM 40.4411 -73.7325 131° Southeast 316 364 8,500 -1,620 Descending New York Center
07:40PM 40.3936 -73.6350 123° Southeast 301 346 6,900 -1,500 Descending New York Center
07:41PM 40.4369 -73.5633 52° Northeast 224 258 5,600 -1,380 Descending New York Center
07:42PM 40.5072 -73.5061 32° Northeast 237 273 4,200 -840 Descending New York Center
07:43PM 40.5644 -73.4592 32° Northeast 269 310 4,000 -180 Descending New York Center
07:44PM 40.6344 -73.4100 28° Northeast 269 310 3,900  Descending New York Center
07:45PM 40.7000 -73.4500 335° Northwest 213 245 4,000 -240 Climbing New York TRACON
07:46PM 40.7333 -73.5167 303° West 212 244 3,500 -660 Descending New York TRACON
07:47PM 40.7667 -73.5833 303° West 209 241 2,700 -840 Descending New York TRACON
07:48PM 40.7667 -73.6500 270° West 214 246 1,900 -420 Descending New York TRACON
07:49PM 40.7333 -73.6833 217° Southwest 179 206 1,900 -420 Level New York TRACON
07:50PM 40.7000 -73.7167 217° Southwest 144 166 1,100 -720 Descending New York TRACON
07:52PM 40.6667 -73.7500 217° Southwest 118 136 500 -600 Descending New York TRACON